Time;durP1;ratioP1;P1;durP2;ratioP2;P2;SDS_P1;SDS_P2;PMS_P1;PMS_P2;Temp;Humidity;BMP_temperature;BMP_pressure;BME280_temperature;BME280_humidity;BME280_pressure;Samples;Min_cycle;Max_cycle;Signal;HPM_P1;HPM_P2
2024/03/04 00:04:28;;;;;;;1999.90;999.90;;;;;;;8.44;100.00;100549.63;10413521;28;20076;-72
2024/03/04 00:09:30;;;;;;;1999.90;999.90;;;;;;;8.41;100.00;100565.41;10413125;28;20115;-72
2024/03/04 00:14:33;;;;;;;1999.90;999.90;;;;;;;8.40;100.00;100568.91;10414725;28;20045;-73
2024/03/04 00:19:36;;;;;;;1999.90;999.90;;;;;;;8.61;100.00;100577.44;10420462;28;20132;-72
2024/03/04 00:24:39;;;;;;;1999.90;999.90;;;;;;;8.31;100.00;100585.88;10420341;28;20061;-72
2024/03/04 00:29:42;;;;;;;1999.90;999.90;;;;;;;8.64;100.00;100584.25;10419130;28;20045;-72
2024/03/04 00:34:44;;;;;;;1999.90;999.90;;;;;;;8.48;100.00;100592.03;10420132;28;20072;-72
2024/03/04 00:39:46;;;;;;;1999.90;999.90;;;;;;;8.42;100.00;100600.16;10420082;28;20136;-72
2024/03/04 00:44:49;;;;;;;1999.90;999.90;;;;;;;8.45;100.00;100611.28;10419628;28;20073;-72
2024/03/04 00:49:52;;;;;;;1999.90;999.90;;;;;;;8.37;100.00;100616.91;10402068;28;20132;-73
2024/03/04 00:54:54;;;;;;;1999.90;999.90;;;;;;;8.79;100.00;100614.75;10419023;28;20401;-72
2024/03/04 00:59:57;;;;;;;1999.90;999.90;;;;;;;8.72;100.00;100608.19;10417870;28;20049;-72
2024/03/04 01:04:59;;;;;;;1999.90;999.90;;;;;;;8.47;100.00;100624.25;10418767;28;20061;-73
2024/03/04 01:10:02;;;;;;;1999.90;999.90;;;;;;;8.78;100.00;100626.13;10417564;28;20057;-73
2024/03/04 01:15:07;;;;;;;1999.90;999.90;;;;;;;8.47;100.00;100625.13;10418332;28;20045;-72
2024/03/04 01:20:13;;;;;;;1999.90;999.90;;;;;;;8.55;100.00;100646.44;10418098;28;20156;-72
2024/03/04 01:25:16;;;;;;;1999.90;999.90;;;;;;;8.51;100.00;100647.53;10417812;28;20050;-72
2024/03/04 01:30:19;;;;;;;1999.90;999.90;;;;;;;8.72;100.00;100669.06;10417913;28;20049;-72
2024/03/04 01:35:21;;;;;;;1999.90;999.90;;;;;;;8.57;100.00;100664.63;10417516;28;20076;-72
2024/03/04 01:40:24;;;;;;;1999.90;999.90;;;;;;;8.47;100.00;100669.50;10417253;28;20459;-71
2024/03/04 01:45:27;;;;;;;1999.90;999.90;;;;;;;8.74;100.00;100661.13;10417525;28;20140;-72
2024/03/04 01:50:39;;;;;;;1999.90;999.90;;;;;;;8.58;100.00;100684.59;10415917;28;20132;-72
2024/03/04 01:55:45;;;;;;;1999.90;999.90;;;;;;;8.61;100.00;100686.19;10416072;28;20068;-72
2024/03/04 02:00:51;;;;;;;1999.90;999.90;;;;;;;8.60;100.00;100697.56;10415687;28;20064;-72
2024/03/04 02:05:54;;;;;;;1999.90;999.90;;;;;;;8.57;100.00;100701.16;10416302;28;20124;-71
2024/03/04 02:10:57;;;;;;;1999.90;999.90;;;;;;;8.62;100.00;100695.72;10415137;28;20144;-72
2024/03/04 02:16:00;;;;;;;1999.90;999.90;;;;;;;8.56;100.00;100707.31;10415024;28;20053;-72
2024/03/04 02:21:03;;;;;;;1999.90;999.90;;;;;;;8.66;100.00;100694.66;10415607;28;20053;-72
2024/03/04 02:26:06;;;;;;;1999.90;999.90;;;;;;;8.85;100.00;100700.59;10414556;28;20483;-72
2024/03/04 02:31:10;;;;;;;1999.90;999.90;;;;;;;8.55;100.00;100709.06;10414185;28;20483;-71
2024/03/04 02:36:13;;;;;;;1999.90;999.90;;;;;;;8.80;100.00;100707.00;10414069;28;20048;-72
2024/03/04 02:41:15;;;;;;;1999.90;999.90;;;;;;;8.86;100.00;100714.47;10414949;28;20423;-71
2024/03/04 02:46:18;;;;;;;1999.90;999.90;;;;;;;8.75;100.00;100720.25;10415141;28;20132;-72
2024/03/04 02:51:21;;;;;;;1999.90;999.90;;;;;;;8.83;100.00;100722.50;10413840;28;20111;-72
2024/03/04 02:56:24;;;;;;;1999.90;999.90;;;;;;;8.35;100.00;100735.28;10414685;28;20073;-72
2024/03/04 03:01:26;;;;;;;1999.90;999.90;;;;;;;8.72;100.00;100731.72;10414555;28;20053;-71
2024/03/04 03:06:29;;;;;;;1999.90;999.90;;;;;;;8.41;100.00;100734.16;10413578;28;20045;-71
2024/03/04 03:11:31;;;;;;;1999.90;999.90;;;;;;;8.29;100.00;100756.47;10414549;28;20128;-72
2024/03/04 03:16:34;;;;;;;1999.90;999.90;;;;;;;8.67;100.00;100756.34;10413342;28;20046;-72
2024/03/04 03:21:36;;;;;;;1999.90;999.90;;;;;;;8.47;100.00;100771.25;10414005;28;20410;-72
2024/03/04 03:26:38;;;;;;;1999.90;999.90;;;;;;;8.54;100.00;100770.00;10414358;28;20050;-72
2024/03/04 03:31:41;;;;;;;1999.90;999.90;;;;;;;8.34;100.00;100765.75;10413077;28;20084;-72
2024/03/04 03:36:44;;;;;;;1999.90;999.90;;;;;;;8.44;100.00;100775.75;10425487;22;20493;-68
2024/03/04 03:41:47;;;;;;;1999.90;999.90;;;;;;;8.61;100.00;100775.78;10453912;28;20517;-68
2024/03/04 03:46:49;;;;;;;1999.90;999.90;;;;;;;8.44;100.00;100779.22;10437476;28;20128;-68
2024/03/04 03:51:52;;;;;;;1999.90;999.90;;;;;;;8.28;100.00;100786.06;10460433;28;20099;-68
2024/03/04 03:56:54;;;;;;;1999.90;999.90;;;;;;;8.40;100.00;100795.88;10461349;28;20083;-68
2024/03/04 04:01:57;;;;;;;1999.90;999.90;;;;;;;8.45;100.00;100798.31;10462757;28;20056;-68
2024/03/04 04:06:59;;;;;;;1999.90;999.90;;;;;;;8.61;100.00;100801.88;10462318;28;20080;-68
2024/03/04 04:12:02;;;;;;;1999.90;999.90;;;;;;;8.44;100.00;100813.13;10461257;28;20128;-68
2024/03/04 04:17:04;;;;;;;1999.90;999.90;;;;;;;8.41;100.00;100813.25;10460529;28;20462;-68
2024/03/04 04:22:07;;;;;;;1999.90;999.90;;;;;;;8.32;100.00;100816.28;10461528;28;20080;-68
2024/03/04 04:27:09;;;;;;;1999.90;999.90;;;;;;;8.43;100.00;100826.25;10460395;28;20050;-68
2024/03/04 04:32:13;;;;;;;1999.90;999.90;;;;;;;8.48;100.00;100835.53;10461107;28;20049;-68
2024/03/04 04:37:15;;;;;;;1999.90;999.90;;;;;;;8.64;100.00;100834.78;10460966;28;20132;-68
2024/03/04 04:42:18;;;;;;;1999.90;999.90;;;;;;;8.72;100.00;100830.91;10443089;28;20053;-68
2024/03/04 04:47:22;;;;;;;1999.90;999.90;;;;;;;8.82;100.00;100841.72;10460864;28;20484;-68
2024/03/04 04:52:25;;;;;;;1999.90;999.90;;;;;;;8.40;100.00;100855.06;10459529;28;20053;-68
2024/03/04 04:57:27;;;;;;;1999.90;999.90;;;;;;;8.57;100.00;100852.50;10460537;28;20080;-68
2024/03/04 05:02:30;;;;;;;1999.90;999.90;;;;;;;8.46;100.00;100858.25;10459565;28;20059;-68
2024/03/04 05:07:32;;;;;;;1999.90;999.90;;;;;;;8.68;100.00;100865.06;10459888;28;20124;-68
2024/03/04 05:12:34;;;;;;;1999.90;999.90;;;;;;;8.49;100.00;100865.94;10459076;28;20049;-68
2024/03/04 05:17:37;;;;;;;1999.90;999.90;;;;;;;8.70;100.00;100874.50;10459515;28;20445;-68
2024/03/04 05:22:39;;;;;;;1999.90;999.90;;;;;;;8.59;100.00;100875.94;10459518;28;20111;-68
2024/03/04 05:27:42;;;;;;;1999.90;999.90;;;;;;;8.36;100.00;100893.50;10459235;28;20053;-68
2024/03/04 05:32:44;;;;;;;1999.90;999.90;;;;;;;8.70;100.00;100897.16;10459159;28;20164;-68
2024/03/04 05:37:47;;;;;;;1999.90;999.90;;;;;;;8.34;100.00;100911.00;10457608;28;20528;-68
2024/03/04 05:42:49;;;;;;;1999.90;999.90;;;;;;;8.76;100.00;100917.75;10457464;28;20485;-68
2024/03/04 05:47:54;;;;;;;1999.90;999.90;;;;;;;8.62;100.00;100931.44;10457490;28;20131;-68
2024/03/04 05:52:56;;;;;;;1999.90;999.90;;;;;;;8.83;100.00;100940.03;10458426;28;20132;-68
2024/03/04 05:57:59;;;;;;;1999.90;999.90;;;;;;;8.68;100.00;100953.81;10458304;28;20049;-68
2024/03/04 06:03:03;;;;;;;1999.90;999.90;;;;;;;8.49;100.00;100946.84;10456713;28;20049;-68
2024/03/04 06:08:06;;;;;;;1999.90;999.90;;;;;;;8.41;100.00;100948.09;10456287;28;20128;-68
2024/03/04 06:13:09;;;;;;;1999.90;999.90;;;;;;;8.43;100.00;100959.31;10455328;28;20107;-68
2024/03/04 06:18:12;;;;;;;1999.90;999.90;;;;;;;8.43;100.00;100954.94;10457062;28;20484;-68
2024/03/04 06:23:15;;;;;;;1999.90;999.90;;;;;;;8.68;100.00;100956.41;10457078;28;20052;-68
2024/03/04 06:28:17;;;;;;;1999.90;999.90;;;;;;;8.49;100.00;100959.03;10456833;28;20409;-68
2024/03/04 06:33:20;;;;;;;1999.90;999.90;;;;;;;8.24;100.00;100962.72;10456779;28;20206;-68
2024/03/04 06:38:24;;;;;;;1999.90;999.90;;;;;;;8.46;100.00;100965.25;10456245;28;20436;-68
2024/03/04 06:43:30;;;;;;;1999.90;999.90;;;;;;;8.37;100.00;100968.22;10456130;28;20482;-68
2024/03/04 06:48:32;;;;;;;1999.90;999.90;;;;;;;8.19;100.00;100970.75;10438490;28;20509;-68
2024/03/04 06:53:35;;;;;;;1999.90;999.90;;;;;;;8.53;100.00;100968.41;10454902;28;20416;-68
2024/03/04 06:58:37;;;;;;;1999.90;999.90;;;;;;;8.63;100.00;100979.28;10455949;28;20581;-68
2024/03/04 07:03:43;;;;;;;1999.90;999.90;;;;;;;8.46;100.00;100980.91;10455973;28;20063;-68
2024/03/04 07:08:45;;;;;;;1999.90;999.90;;;;;;;8.61;100.00;100989.78;10455905;28;20478;-68
2024/03/04 07:13:47;;;;;;;1999.90;999.90;;;;;;;8.71;100.00;100988.44;10455714;28;20087;-68
2024/03/04 07:18:52;;;;;;;1999.90;999.90;;;;;;;8.92;99.43;100997.03;10455573;28;20056;-68
2024/03/04 07:23:55;;;;;;;1999.90;999.90;;;;;;;8.89;99.93;101001.53;10456784;28;20075;-68
2024/03/04 07:28:57;;;;;;;1999.90;999.90;;;;;;;9.04;98.52;101005.19;10463673;28;20076;-68
2024/03/04 07:34:00;;;;;;;1999.90;999.90;;;;;;;8.92;98.84;100998.78;10463695;28;20123;-68
2024/03/04 07:39:03;;;;;;;1999.90;999.90;;;;;;;9.24;98.89;100994.63;10462976;28;20543;-68
2024/03/04 07:44:06;;;;;;;1999.90;999.90;;;;;;;9.09;96.77;100995.38;10462005;28;20504;-68
2024/03/04 07:49:09;;;;;;;1999.90;999.90;;;;;;;9.72;95.36;100992.28;10445467;28;20091;-69
2024/03/04 07:54:11;;;;;;;1999.90;999.90;;;;;;;9.33;93.94;100990.75;10462776;28;20413;-68
2024/03/04 07:59:14;;;;;;;1999.90;999.90;;;;;;;9.19;94.99;100991.41;10462574;28;20084;-68
2024/03/04 08:04:17;;;;;;;1999.90;999.90;;;;;;;10.23;93.35;100993.13;10461732;28;20067;-68
2024/03/04 08:09:19;;;;;;;1999.90;999.90;;;;;;;10.28;91.11;100992.03;10461233;28;20041;-68
2024/03/04 08:14:21;;;;;;;1999.90;999.90;;;;;;;10.44;87.45;100999.94;10462087;28;20053;-68
2024/03/04 08:19:24;;;;;;;1999.90;999.90;;;;;;;10.98;86.56;100997.88;10461715;28;20485;-68
2024/03/04 08:24:26;;;;;;;1999.90;999.90;;;;;;;10.18;85.65;101010.00;10461807;28;20493;-68
2024/03/04 08:29:29;;;;;;;1999.90;999.90;;;;;;;10.60;86.48;101013.91;10461379;28;20045;-68
2024/03/04 08:34:32;;;;;;;1999.90;999.90;;;;;;;10.35;87.75;101004.72;10460332;28;20053;-68
2024/03/04 08:39:35;;;;;;;1999.90;999.90;;;;;;;10.66;84.88;101008.34;10460920;28;20490;-68
2024/03/04 08:44:38;;;;;;;1999.90;999.90;;;;;;;10.05;84.99;101001.94;10460065;28;20057;-68
2024/03/04 08:49:40;;;;;;;1999.90;999.90;;;;;;;10.97;81.55;101010.09;10460614;28;20128;-68
2024/03/04 08:54:42;;;;;;;1999.90;999.90;;;;;;;11.44;79.08;101021.47;10460615;28;20049;-68
2024/03/04 08:59:45;;;;;;;1999.90;999.90;;;;;;;13.02;76.87;101013.66;10460501;28;20494;-68
2024/03/04 09:04:49;;;;;;;1999.90;999.90;;;;;;;13.01;74.03;101014.63;10459859;28;20128;-69
2024/03/04 09:09:53;;;;;;;1999.90;999.90;;;;;;;11.50;78.46;101025.53;10459984;28;20460;-68
2024/03/04 09:14:55;;;;;;;1999.90;999.90;;;;;;;11.17;79.02;101030.91;10459588;28;20405;-69
2024/03/04 09:19:58;;;;;;;1999.90;999.90;;;;;;;11.71;78.14;101042.59;10458731;28;20055;-68
2024/03/04 09:25:01;;;;;;;1999.90;999.90;;;;;;;11.45;77.59;101043.28;10459343;28;20057;-68
2024/03/04 09:30:06;;;;;;;1999.90;999.90;;;;;;;10.37;80.63;101057.88;10458209;28;20509;-68
2024/03/04 09:35:09;;;;;;;1999.90;999.90;;;;;;;10.68;81.66;101060.63;10457862;28;20528;-69
2024/03/04 09:40:11;;;;;;;1999.90;999.90;;;;;;;10.79;79.91;101050.41;10458768;28;20063;-68
2024/03/04 09:45:17;;;;;;;1999.90;999.90;;;;;;;10.28;80.79;101063.53;10458437;28;20048;-68
2024/03/04 09:50:22;;;;;;;1999.90;999.90;;;;;;;10.18;82.52;101067.56;10457543;28;20132;-69
2024/03/04 09:55:25;;;;;;;1999.90;999.90;;;;;;;10.44;81.92;101068.88;10440518;28;20053;-68
2024/03/04 10:00:28;;;;;;;1999.90;999.90;;;;;;;10.77;81.28;101065.38;10456861;28;20044;-69
2024/03/04 10:05:30;;;;;;;1999.90;999.90;;;;;;;10.46;79.43;101069.63;10457850;28;20053;-68
2024/03/04 10:10:33;;;;;;;1999.90;999.90;;;;;;;10.25;80.13;101070.72;10457558;28;20123;-68
2024/03/04 10:15:35;;;;;;;1999.90;999.90;;;;;;;10.38;81.29;101072.63;10455970;28;20480;-68
2024/03/04 10:20:38;;;;;;;1999.90;999.90;;;;;;;11.77;78.56;101077.28;10456439;28;20056;-68
2024/03/04 10:25:41;;;;;;;1999.90;999.90;;;;;;;11.33;76.62;101071.88;10457229;28;20049;-69
2024/03/04 10:30:44;;;;;;;1999.90;999.90;;;;;;;11.93;78.12;101079.91;10456698;28;20056;-69
2024/03/04 10:35:46;;;;;;;1999.90;999.90;;;;;;;11.96;75.63;101083.19;10456731;28;20049;-68
2024/03/04 10:40:52;;;;;;;1999.90;999.90;;;;;;;12.41;72.83;101077.94;10456315;28;20140;-68
2024/03/04 10:45:54;;;;;;;1999.90;999.90;;;;;;;12.57;73.60;101081.28;10455324;28;20481;-68
2024/03/04 10:50:57;;;;;;;1999.90;999.90;;;;;;;12.71;73.67;101080.47;10456326;28;20124;-68
2024/03/04 10:56:07;;;;;;;1999.90;999.90;;;;;;;13.17;74.42;101076.72;10455108;28;20077;-68
2024/03/04 11:01:14;;;;;;;1999.90;999.90;;;;;;;13.01;71.57;101077.69;10455498;28;20409;-68
2024/03/04 11:06:23;;;;;;;1999.90;999.90;;;;;;;12.67;71.61;101081.56;10438947;28;20049;-69
2024/03/04 11:11:42;;;;;;;1999.90;999.90;;;;;;;11.83;73.69;101082.19;10455755;28;20536;-68
2024/03/04 11:17:20;;;;;;;1999.90;999.90;;;;;;;11.24;74.64;101079.41;10455786;28;20045;-68
2024/03/04 11:22:23;;;;;;;1999.90;999.90;;;;;;;12.29;74.20;101090.03;10443284;28;20053;-68
2024/03/04 11:27:26;;;;;;;1999.90;999.90;;;;;;;12.67;72.02;101083.38;10437988;28;20485;-69
2024/03/04 11:32:31;;;;;;;1999.90;999.90;;;;;;;13.63;70.06;101086.06;10454133;28;20567;-69
2024/03/04 11:38:14;;;;;;;1999.90;999.90;;;;;;;13.61;69.76;101085.34;10454116;28;20076;-69
2024/03/04 11:43:56;;;;;;;1999.90;999.90;;;;;;;13.61;69.36;101086.16;10455045;28;20056;-69
2024/03/04 11:49:28;;;;;;;1999.90;999.90;;;;;;;14.00;68.21;101094.16;10312364;28;20074;-68
2024/03/04 11:54:43;;;;;;;1999.90;999.90;;;;;;;12.50;70.01;101090.50;10440407;28;20060;-69
2024/03/04 11:59:59;;;;;;;1999.90;999.90;;;;;;;13.32;70.09;101088.06;10453680;28;20103;-69
2024/03/04 12:05:02;;;;;;;1999.90;999.90;;;;;;;13.42;68.27;101093.59;10453580;28;20084;-69
2024/03/04 12:10:05;;;;;;;1999.90;999.90;;;;;;;11.95;69.03;101101.66;10455433;28;20563;-69
2024/03/04 12:15:18;;;;;;;1999.90;999.90;;;;;;;12.70;70.25;101099.78;10462209;28;20528;-69
2024/03/04 12:20:21;;;;;;;1999.90;999.90;;;;;;;12.52;69.97;101106.16;10461662;28;20045;-69
2024/03/04 12:25:27;;;;;;;1999.90;999.90;;;;;;;12.39;71.58;101106.03;10460872;28;20128;-68
2024/03/04 12:30:29;;;;;;;1999.90;999.90;;;;;;;14.44;67.74;101099.03;10444193;28;20510;-69
2024/03/04 12:35:32;;;;;;;1999.90;999.90;;;;;;;13.48;66.28;101101.94;10461315;28;20053;-69
2024/03/04 12:40:35;;;;;;;1999.90;999.90;;;;;;;13.23;67.33;101084.22;10459928;28;20085;-69
2024/03/04 12:45:38;;;;;;;1999.90;999.90;;;;;;;13.23;65.91;101086.84;10459786;28;20053;-69
2024/03/04 12:50:43;;;;;;;1999.90;999.90;;;;;;;13.19;69.73;101087.97;10460760;28;20057;-69
2024/03/04 12:55:47;;;;;;;1999.90;999.90;;;;;;;13.44;65.54;101081.19;10460552;28;20045;-69
2024/03/04 13:00:50;;;;;;;1999.90;999.90;;;;;;;13.99;66.96;101076.69;10443177;28;20056;-69
2024/03/04 13:05:53;;;;;;;1999.90;999.90;;;;;;;16.23;63.87;101072.94;10460541;28;20091;-69
2024/03/04 13:10:55;;;;;;;1999.90;999.90;;;;;;;17.20;61.26;101068.00;10458827;28;20483;-69
2024/03/04 13:15:58;;;;;;;1999.90;999.90;;;;;;;18.38;53.42;101062.59;10442282;28;20047;-69
2024/03/04 13:21:02;;;;;;;1999.90;999.90;;;;;;;16.82;54.78;101065.75;10459225;28;20052;-69
2024/03/04 13:26:05;;;;;;;1999.90;999.90;;;;;;;19.31;55.87;101057.97;10459640;28;20099;-69
2024/03/04 13:31:07;;;;;;;1999.90;999.90;;;;;;;17.81;56.92;101058.59;10459461;28;20076;-69
2024/03/04 13:36:10;;;;;;;1999.90;999.90;;;;;;;17.20;54.66;101059.22;10457637;28;20052;-68
2024/03/04 13:41:12;;;;;;;1999.90;999.90;;;;;;;16.15;57.84;101070.91;10458494;28;20143;-68
2024/03/04 13:46:15;;;;;;;1999.90;999.90;;;;;;;19.46;52.53;101053.09;10457475;28;20481;-69
2024/03/04 13:51:17;;;;;;;1999.90;999.90;;;;;;;19.36;50.35;101046.94;10458192;28;20448;-69
2024/03/04 13:56:20;;;;;;;1999.90;999.90;;;;;;;19.16;49.81;101040.78;10458187;28;20045;-69
2024/03/04 14:01:23;;;;;;;1999.90;999.90;;;;;;;15.22;56.36;101058.41;10457741;28;20129;-68
2024/03/04 14:06:26;;;;;;;1999.90;999.90;;;;;;;18.25;54.03;101051.34;10457893;28;20090;-69
2024/03/04 14:11:28;;;;;;;1999.90;999.90;;;;;;;19.13;52.93;101033.09;10456271;28;20488;-69
2024/03/04 14:16:30;;;;;;;1999.90;999.90;;;;;;;18.31;49.03;101042.88;10439864;28;20409;-69
2024/03/04 14:21:33;;;;;;;1999.90;999.90;;;;;;;16.21;55.48;101047.63;10457061;28;20084;-69
2024/03/04 14:26:36;;;;;;;1999.90;999.90;;;;;;;15.35;55.99;101053.09;10457248;28;20045;-69
2024/03/04 14:31:38;;;;;;;1999.90;999.90;;;;;;;21.09;48.10;101034.25;10455758;28;20053;-69
2024/03/04 14:36:41;;;;;;;1999.90;999.90;;;;;;;18.12;49.13;101040.13;10454871;28;20077;-69
2024/03/04 14:41:43;;;;;;;1999.90;999.90;;;;;;;14.59;55.78;101047.13;10455204;28;20053;-69
2024/03/04 14:46:46;;;;;;;1999.90;999.90;;;;;;;14.29;57.34;101048.25;10455244;28;20060;-69
2024/03/04 14:51:49;;;;;;;1999.90;999.90;;;;;;;16.49;55.83;101036.59;10455042;28;20055;-70
2024/03/04 14:56:51;;;;;;;1999.90;999.90;;;;;;;15.00;56.66;101035.41;10455918;28;20084;-70
2024/03/04 15:01:53;;;;;;;1999.90;999.90;;;;;;;18.36;55.36;101042.50;10456190;28;20052;-69
2024/03/04 15:06:57;;;;;;;1999.90;999.90;;;;;;;26.79;34.26;101016.13;10456044;28;20045;-70
2024/03/04 15:12:00;;;;;;;1999.90;999.90;;;;;;;24.34;39.75;101027.91;10455832;28;20102;-69
2024/03/04 15:17:05;;;;;;;1999.90;999.90;;;;;;;26.59;34.26;101020.41;10455497;28;20049;-69
2024/03/04 15:22:08;;;;;;;1999.90;999.90;;;;;;;27.88;32.91;101014.22;10455608;28;20448;-69
2024/03/04 15:27:11;;;;;;;1999.90;999.90;;;;;;;19.01;46.72;101018.28;10454435;28;20077;-69
2024/03/04 15:32:14;;;;;;;1999.90;999.90;;;;;;;20.22;44.26;101019.56;10454348;28;20049;-69
2024/03/04 15:37:16;;;;;;;1999.90;999.90;;;;;;;20.23;45.00;101021.25;10455432;28;20053;-70
2024/03/04 15:42:18;;;;;;;1999.90;999.90;;;;;;;25.51;34.02;101001.13;10455058;28;20422;-70
2024/03/04 15:47:21;;;;;;;1999.90;999.90;;;;;;;26.29;34.02;101002.50;10460063;28;20060;-69
2024/03/04 15:52:23;;;;;;;1999.90;999.90;;;;;;;21.86;41.43;101013.28;10468486;22;20056;-73
2024/03/04 15:57:26;;;;;;;1999.90;999.90;;;;;;;20.36;43.94;101018.28;10461506;28;20048;-73
2024/03/04 16:02:28;;;;;;;1999.90;999.90;;;;;;;17.06;49.92;101024.16;10461804;28;20052;-73
2024/03/04 16:07:31;;;;;;;1999.90;999.90;;;;;;;15.72;53.08;101029.25;10461502;28;20049;-73
2024/03/04 16:12:33;;;;;;;1999.90;999.90;;;;;;;15.97;53.89;101030.06;10461703;28;20049;-74
2024/03/04 16:17:36;;;;;;;1999.90;999.90;;;;;;;14.58;57.22;101026.13;10462189;28;20049;-73
2024/03/04 16:22:38;;;;;;;1999.90;999.90;;;;;;;14.33;59.78;101032.25;10462088;28;20124;-73
2024/03/04 16:27:42;;;;;;;1999.90;999.90;;;;;;;13.71;62.05;101039.06;10461902;28;20124;-73
2024/03/04 16:32:44;;;;;;;1999.90;999.90;;;;;;;13.41;62.94;101042.75;10460279;28;20414;-73
2024/03/04 16:37:47;;;;;;;1999.90;999.90;;;;;;;13.31;63.52;101044.28;10460280;28;20052;-74
2024/03/04 16:42:49;;;;;;;1999.90;999.90;;;;;;;12.94;65.10;101047.47;10461245;28;20045;-73
2024/03/04 16:47:52;;;;;;;1999.90;999.90;;;;;;;12.31;67.11;101058.44;10460094;28;20080;-73
2024/03/04 16:52:55;;;;;;;1999.90;999.90;;;;;;;12.34;67.58;101059.06;10460513;28;20063;-73
2024/03/04 16:58:00;;;;;;;1999.90;999.90;;;;;;;12.40;68.91;101053.44;10458724;28;20049;-73
2024/03/04 17:03:04;;;;;;;1999.90;999.90;;;;;;;12.15;69.75;101059.31;10459289;28;20128;-73
2024/03/04 17:08:10;;;;;;;1999.90;999.90;;;;;;;11.88;70.89;101061.78;10460217;28;20053;-73
2024/03/04 17:13:12;;;;;;;1999.90;999.90;;;;;;;11.60;71.60;101062.53;10460118;28;20045;-73
2024/03/04 17:18:14;;;;;;;1999.90;999.90;;;;;;;11.57;72.26;101068.81;10458527;28;20053;-73
2024/03/04 17:23:17;;;;;;;1999.90;999.90;;;;;;;10.52;74.85;101077.16;10459684;28;20053;-73
2024/03/04 17:28:19;;;;;;;1999.90;999.90;;;;;;;10.42;75.86;101094.25;10459725;28;20119;-73
2024/03/04 17:33:22;;;;;;;1999.90;999.90;;;;;;;10.11;77.12;101090.56;10458130;28;20088;-72
2024/03/04 17:38:25;;;;;;;1999.90;999.90;;;;;;;9.90;78.46;101094.25;10457860;28;20052;-73
2024/03/04 17:43:27;;;;;;;1999.90;999.90;;;;;;;9.59;79.87;101108.84;10458880;28;20052;-72
2024/03/04 17:48:31;;;;;;;1999.90;999.90;;;;;;;9.76;80.30;101111.47;10458839;28;20052;-73
2024/03/04 17:53:34;;;;;;;1999.90;999.90;;;;;;;10.02;79.51;101106.75;10458150;28;20497;-73
2024/03/04 17:58:36;;;;;;;1999.90;999.90;;;;;;;9.89;81.99;101116.13;10458561;28;20080;-73
2024/03/04 18:03:39;;;;;;;1999.90;999.90;;;;;;;9.89;82.71;101116.97;10457981;28;20049;-72
2024/03/04 18:08:42;;;;;;;1999.90;999.90;;;;;;;9.73;84.21;101121.25;10456930;28;20083;-72
2024/03/04 18:13:44;;;;;;;1999.90;999.90;;;;;;;9.78;82.35;101121.88;10456518;28;20607;-72
2024/03/04 18:18:46;;;;;;;1999.90;999.90;;;;;;;9.48;84.05;101131.13;10456025;28;20055;-72
2024/03/04 18:23:49;;;;;;;1999.90;999.90;;;;;;;9.06;85.62;101133.94;10455467;28;20133;-72
2024/03/04 18:28:51;;;;;;;1999.90;999.90;;;;;;;8.93;85.94;101134.50;10439113;28;20051;-72
2024/03/04 18:33:54;;;;;;;1999.90;999.90;;;;;;;8.69;87.89;101136.47;10455417;28;20135;-72
2024/03/04 18:38:58;;;;;;;1999.90;999.90;;;;;;;8.51;88.27;101143.34;10456759;28;20114;-72
2024/03/04 18:44:02;;;;;;;1999.90;999.90;;;;;;;8.30;89.36;101139.84;10456200;28;20044;-72
2024/03/04 18:49:05;;;;;;;1999.90;999.90;;;;;;;8.10;89.99;101150.25;10455257;28;20055;-72
2024/03/04 18:54:08;;;;;;;1999.90;999.90;;;;;;;8.16;89.95;101144.78;10455858;28;20076;-72
2024/03/04 18:59:10;;;;;;;1999.90;999.90;;;;;;;7.94;91.94;101137.00;10455524;28;20049;-72
2024/03/04 19:04:13;;;;;;;1999.90;999.90;;;;;;;7.57;93.03;101141.94;10454947;28;20049;-72
2024/03/04 19:09:16;;;;;;;1999.90;999.90;;;;;;;7.46;93.97;101151.91;10455476;28;20049;-72
2024/03/04 19:14:19;;;;;;;1999.90;999.90;;;;;;;7.49;94.08;101146.59;10454547;28;20072;-72
2024/03/04 19:19:21;;;;;;;1999.90;999.90;;;;;;;7.46;94.20;101146.72;10456887;28;20405;-73
2024/03/04 19:24:24;;;;;;;1999.90;999.90;;;;;;;7.34;95.88;101155.84;10464155;28;20053;-72
2024/03/04 19:29:26;;;;;;;1999.90;999.90;;;;;;;7.22;97.33;101159.75;10462844;28;20045;-72
2024/03/04 19:34:29;;;;;;;1999.90;999.90;;;;;;;7.42;97.01;101158.16;10463738;28;20053;-72
2024/03/04 19:39:31;;;;;;;1999.90;999.90;;;;;;;7.10;95.48;101167.22;10463601;28;20048;-72
2024/03/04 19:44:34;;;;;;;1999.90;999.90;;;;;;;7.11;96.96;101168.88;10463109;28;20110;-72
2024/03/04 19:49:36;;;;;;;1999.90;999.90;;;;;;;6.97;96.93;101165.03;10463213;28;20076;-72
2024/03/04 19:54:38;;;;;;;1999.90;999.90;;;;;;;6.82;97.66;101163.00;10461342;28;20456;-72
2024/03/04 19:59:42;;;;;;;1999.90;999.90;;;;;;;6.88;97.71;101168.81;10461731;28;20056;-72
2024/03/04 20:04:48;;;;;;;1999.90;999.90;;;;;;;6.84;99.71;101171.59;10461229;28;20080;-72
2024/03/04 20:09:52;;;;;;;1999.90;999.90;;;;;;;6.63;98.94;101170.59;10462044;28;20049;-72
2024/03/04 20:14:54;;;;;;;1999.90;999.90;;;;;;;6.79;98.13;101169.16;10462534;28;20133;-72
2024/03/04 20:19:57;;;;;;;1999.90;999.90;;;;;;;6.66;99.63;101173.94;10460714;28;20449;-72
2024/03/04 20:24:59;;;;;;;1999.90;999.90;;;;;;;6.64;100.00;101172.28;10462184;28;20049;-72
2024/03/04 20:30:02;;;;;;;1999.90;999.90;;;;;;;6.77;100.00;101172.72;10460945;28;20436;-72
2024/03/04 20:35:04;;;;;;;1999.90;999.90;;;;;;;6.67;100.00;101162.66;10443256;28;20106;-72
2024/03/04 20:40:10;;;;;;;1999.90;999.90;;;;;;;6.63;100.00;101166.25;10461261;28;20132;-73
2024/03/04 20:45:12;;;;;;;1999.90;999.90;;;;;;;6.49;100.00;101165.88;10460930;28;20054;-72
2024/03/04 20:50:16;;;;;;;1999.90;999.90;;;;;;;6.66;100.00;101171.34;10460693;28;20135;-72
2024/03/04 20:55:19;;;;;;;1999.90;999.90;;;;;;;6.60;100.00;101162.91;10459300;28;20514;-72
2024/03/04 21:00:22;;;;;;;1999.90;999.90;;;;;;;6.50;100.00;101177.97;10460526;28;20044;-73
2024/03/04 21:05:27;;;;;;;1999.90;999.90;;;;;;;6.64;100.00;101177.50;10460248;28;20132;-73
2024/03/04 21:10:29;;;;;;;1999.90;999.90;;;;;;;6.56;100.00;101179.53;10459845;28;20461;-72
2024/03/04 21:15:32;;;;;;;1999.90;999.90;;;;;;;6.53;100.00;101179.63;10459981;28;20055;-72
2024/03/04 21:20:34;;;;;;;1999.90;999.90;;;;;;;6.83;100.00;101181.16;10458068;28;20072;-72
2024/03/04 21:25:38;;;;;;;1999.90;999.90;;;;;;;6.45;100.00;101166.88;10442025;28;20477;-72
2024/03/04 21:30:40;;;;;;;1999.90;999.90;;;;;;;6.57;100.00;101171.66;10459293;28;20053;-72
2024/03/04 21:35:42;;;;;;;1999.90;999.90;;;;;;;6.31;100.00;101170.78;10459419;28;20561;-72
2024/03/04 21:40:45;;;;;;;1999.90;999.90;;;;;;;6.23;100.00;101175.41;10458006;28;20049;-72
2024/03/04 21:45:47;;;;;;;1999.90;999.90;;;;;;;6.29;100.00;101180.41;10457325;28;20476;-72
2024/03/04 21:50:50;;;;;;;1999.90;999.90;;;;;;;6.26;100.00;101177.91;10457419;28;20049;-73
2024/03/04 21:55:52;;;;;;;1999.90;999.90;;;;;;;6.22;100.00;101172.84;10457832;28;20055;-72
2024/03/04 22:00:55;;;;;;;1999.90;999.90;;;;;;;6.38;100.00;101174.03;10458293;28;20140;-72